Time;durP1;ratioP1;P1;durP2;ratioP2;P2;SDS_P1;SDS_P2;PMS_P1;PMS_P2;Temp;Humidity;BMP_temperature;BMP_pressure;BME280_temperature;BME280_humidity;BME280_pressure;Samples;Min_cycle;Max_cycle;Signal;HPM_P1;HPM_P2
2022/01/13 00:00:31;;;;;;;33.13;20.48;;;-0.20;99.90;;;;;;5015516;28;20033;-74
2022/01/13 00:02:56;;;;;;;29.13;19.88;;;-0.20;99.90;;;;;;5015626;28;20030;-73
2022/01/13 00:05:30;;;;;;;30.50;20.45;;;-0.20;99.90;;;;;;5015816;28;20520;-73
2022/01/13 00:07:57;;;;;;;30.05;21.70;;;-0.20;99.90;;;;;;5015759;28;20018;-73
2022/01/13 00:10:25;;;;;;;26.92;20.55;;;-0.20;99.90;;;;;;5015170;28;20017;-73
2022/01/13 00:12:58;;;;;;;29.05;19.83;;;-0.20;99.90;;;;;;5014103;28;20025;-74
2022/01/13 00:15:40;;;;;;;30.38;20.92;;;-0.20;99.90;;;;;;5015432;28;20022;-73
2022/01/13 00:18:15;;;;;;;26.95;20.38;;;-0.20;99.90;;;;;;5015610;28;20037;-73
2022/01/13 00:23:40;;;;;;;28.95;21.77;;;-0.20;99.90;;;;;;5015102;28;20515;-73
2022/01/13 00:26:14;;;;;;;33.47;23.33;;;-0.10;99.90;;;;;;5015484;28;20115;-73
2022/01/13 00:28:40;;;;;;;34.40;22.75;;;0.00;99.90;;;;;;5015584;28;20037;-74
2022/01/13 00:31:07;;;;;;;34.92;24.35;;;0.00;99.90;;;;;;5015517;28;20022;-73
2022/01/13 00:33:33;;;;;;;33.88;24.55;;;0.10;99.90;;;;;;5015407;28;20037;-73
2022/01/13 00:36:00;;;;;;;33.20;22.95;;;0.10;99.90;;;;;;5015434;28;20469;-74
2022/01/13 00:38:27;;;;;;;34.40;24.48;;;0.20;99.90;;;;;;5015553;28;20029;-73
2022/01/13 00:40:53;;;;;;;36.17;25.08;;;0.30;99.90;;;;;;5015452;28;20496;-72
2022/01/13 00:43:19;;;;;;;30.45;21.95;;;0.40;99.90;;;;;;5015226;28;20038;-73
2022/01/13 00:45:47;;;;;;;31.45;22.10;;;0.30;99.90;;;;;;5015318;28;20034;-73
2022/01/13 00:48:13;;;;;;;32.22;23.20;;;0.30;99.90;;;;;;5015270;28;20013;-72
2022/01/13 00:50:38;;;;;;;38.45;24.63;;;0.30;99.90;;;;;;5021076;28;20586;-72
2022/01/13 00:53:04;;;;;;;36.00;23.30;;;0.30;99.90;;;;;;5014687;28;20030;-73
2022/01/13 00:55:45;;;;;;;31.55;23.42;;;0.60;99.90;;;;;;5015530;28;20124;-72
2022/01/13 00:58:12;;;;;;;32.30;23.27;;;0.80;99.90;;;;;;5014322;28;20064;-73
2022/01/13 01:00:38;;;;;;;33.33;24.67;;;0.90;99.90;;;;;;5014980;28;20040;-74
2022/01/13 01:03:03;;;;;;;34.42;22.63;;;0.80;99.90;;;;;;5026154;28;20116;-72
2022/01/13 01:05:29;;;;;;;40.22;24.60;;;0.80;99.90;;;;;;5031519;28;20057;-73
2022/01/13 01:07:55;;;;;;;35.53;24.23;;;0.80;99.90;;;;;;5032459;28;20031;-73
2022/01/13 01:10:23;;;;;;;35.10;23.67;;;0.70;99.90;;;;;;5032196;28;20053;-72
2022/01/13 01:12:48;;;;;;;35.67;24.25;;;0.70;99.90;;;;;;5031968;28;20037;-73
2022/01/13 01:15:14;;;;;;;37.05;26.27;;;0.70;99.90;;;;;;5032043;28;20101;-72
2022/01/13 01:17:46;;;;;;;39.40;25.80;;;0.70;99.90;;;;;;5027985;28;20465;-72
2022/01/13 01:20:13;;;;;;;44.05;26.50;;;0.60;99.90;;;;;;5025134;28;20036;-72
2022/01/13 01:22:57;;;;;;;37.35;25.23;;;0.50;99.90;;;;;;5025325;28;20037;-73
2022/01/13 01:27:57;;;;;;;34.03;24.73;;;0.50;99.90;;;;;;5022934;28;20040;-73
2022/01/13 01:30:31;;;;;;;37.13;26.17;;;0.60;99.90;;;;;;5018041;28;20018;-73
2022/01/13 01:32:57;;;;;;;34.85;26.00;;;0.60;99.90;;;;;;5017385;28;20057;-73
2022/01/13 01:35:26;;;;;;;36.95;25.30;;;0.60;99.90;;;;;;5017778;28;20022;-73
2022/01/13 01:37:52;;;;;;;36.78;25.45;;;0.40;99.90;;;;;;5020808;28;20034;-72
2022/01/13 01:40:19;;;;;;;36.22;25.10;;;0.30;99.90;;;;;;5021934;28;20038;-74
2022/01/13 01:42:46;;;;;;;34.15;24.48;;;0.20;99.90;;;;;;5019355;28;20030;-73
2022/01/13 01:45:13;;;;;;;38.33;26.25;;;0.30;99.90;;;;;;5022235;28;20025;-74
2022/01/13 01:47:40;;;;;;;34.58;24.85;;;0.40;99.90;;;;;;5025174;28;20030;-73
2022/01/13 01:50:18;;;;;;;38.70;25.10;;;0.30;99.90;;;;;;5022751;28;20029;-73
2022/01/13 01:52:46;;;;;;;36.58;25.02;;;0.30;99.90;;;;;;5026336;28;20428;-72
2022/01/13 01:55:11;;;;;;;38.90;26.88;;;0.40;99.90;;;;;;5023363;28;20026;-73
2022/01/13 01:57:37;;;;;;;39.92;24.85;;;0.50;99.90;;;;;;5022984;28;20032;-73
2022/01/13 02:00:09;;;;;;;33.50;25.45;;;0.70;99.90;;;;;;5021828;28;20589;-72
2022/01/13 02:02:35;;;;;;;39.28;25.15;;;0.80;99.90;;;;;;5003772;28;20442;-73
2022/01/13 02:05:01;;;;;;;39.30;25.45;;;0.90;99.90;;;;;;5020573;28;20041;-73
2022/01/13 02:07:26;;;;;;;35.10;23.80;;;0.90;99.90;;;;;;5020376;28;20509;-72
2022/01/13 02:09:53;;;;;;;36.33;24.83;;;0.90;99.90;;;;;;5021463;28;20026;-72
2022/01/13 02:12:33;;;;;;;36.15;25.25;;;0.90;99.90;;;;;;5023894;28;20022;-72
2022/01/13 02:15:17;;;;;;;34.45;24.83;;;0.90;99.90;;;;;;5035230;28;20034;-72
2022/01/13 02:17:43;;;;;;;40.05;26.25;;;0.90;99.90;;;;;;5037049;28;20045;-73
2022/01/13 02:20:11;;;;;;;39.80;25.02;;;0.90;99.90;;;;;;5039297;28;20048;-72
2022/01/13 02:22:36;;;;;;;43.38;27.10;;;0.80;99.90;;;;;;5026479;28;20097;-73
2022/01/13 02:25:03;;;;;;;36.17;25.98;;;0.80;99.90;;;;;;5016597;28;20106;-72
2022/01/13 02:27:29;;;;;;;37.83;24.92;;;0.60;99.90;;;;;;5017064;28;20497;-73
2022/01/13 02:29:55;;;;;;;37.97;25.95;;;0.40;99.90;;;;;;5017212;28;20097;-73
2022/01/13 02:32:20;;;;;;;37.63;25.60;;;0.50;99.90;;;;;;5017477;28;20037;-73
2022/01/13 02:34:46;;;;;;;36.55;25.67;;;0.50;99.90;;;;;;5017033;28;20405;-72
2022/01/13 02:37:12;;;;;;;36.67;26.92;;;0.40;99.90;;;;;;5017611;28;20033;-72
2022/01/13 02:39:38;;;;;;;36.80;25.10;;;0.50;99.90;;;;;;5016371;28;20057;-73
2022/01/13 02:42:12;;;;;;;34.95;26.05;;;0.60;99.90;;;;;;5017039;28;20037;-73
2022/01/13 02:44:52;;;;;;;34.13;25.77;;;0.60;99.90;;;;;;5016543;28;20389;-72
2022/01/13 02:47:34;;;;;;;;;;;0.50;99.90;;;;;;5017313;28;20046;-73
2022/01/13 02:50:01;;;;;;;38.03;24.70;;;0.70;99.90;;;;;;5015835;28;19905;-72
2022/01/13 02:52:26;;;;;;;35.55;25.27;;;0.70;99.90;;;;;;5017063;28;20026;-74
2022/01/13 02:54:52;;;;;;;37.20;24.73;;;0.60;99.90;;;;;;5015538;28;20041;-74
2022/01/13 02:57:17;;;;;;;39.88;26.55;;;0.60;99.90;;;;;;5017527;28;20030;-74
2022/01/13 02:59:43;;;;;;;33.42;24.58;;;0.70;99.90;;;;;;5017320;28;20025;-72
2022/01/13 03:02:08;;;;;;;37.65;27.33;;;0.80;99.90;;;;;;5016382;28;20045;-73
2022/01/13 03:04:34;;;;;;;32.63;23.90;;;0.60;99.90;;;;;;5017522;28;20037;-73
2022/01/13 03:07:00;;;;;;;33.38;23.38;;;0.40;99.90;;;;;;5016610;28;20037;-72
2022/01/13 03:09:25;;;;;;;38.10;24.83;;;0.40;99.90;;;;;;5017036;28;20029;-73
2022/01/13 03:11:51;;;;;;;37.42;26.23;;;0.40;99.90;;;;;;5018017;28;20381;-73
2022/01/13 03:14:17;;;;;;;39.72;24.00;;;0.30;99.90;;;;;;5017904;28;20030;-73
2022/01/13 03:16:44;;;;;;;41.05;28.42;;;0.30;99.90;;;;;;5015346;28;20026;-72
2022/01/13 03:19:11;;;;;;;38.63;25.17;;;0.30;99.90;;;;;;5013865;28;20030;-73
2022/01/13 03:21:38;;;;;;;34.83;27.13;;;0.20;99.90;;;;;;5016032;28;20018;-73
2022/01/13 03:24:08;;;;;;;32.58;23.52;;;0.20;99.90;;;;;;5014657;28;20109;-73
2022/01/13 03:26:34;;;;;;;34.67;24.98;;;0.10;99.90;;;;;;5038160;23;20418;-77
2022/01/13 03:29:15;;;;;;;32.83;23.90;;;0.00;99.90;;;;;;5018138;28;20034;-77
2022/01/13 03:31:45;;;;;;;37.00;23.25;;;0.00;99.90;;;;;;5013614;28;20026;-77
2022/01/13 03:34:14;;;;;;;34.42;24.67;;;0.00;99.90;;;;;;5013923;28;20330;-77
2022/01/13 03:36:41;;;;;;;37.90;24.85;;;-0.20;99.90;;;;;;5012805;28;20108;-77
2022/01/13 03:39:08;;;;;;;38.22;23.85;;;-0.20;99.90;;;;;;5013645;28;20030;-76
2022/01/13 03:41:35;;;;;;;38.60;25.00;;;-0.10;99.90;;;;;;5014142;28;20032;-77
2022/01/13 03:44:06;;;;;;;40.75;26.48;;;-0.10;99.90;;;;;;5013839;28;20037;-77
2022/01/13 03:46:37;;;;;;;44.78;26.25;;;0.00;99.90;;;;;;5013719;28;20210;-76
2022/01/13 03:49:03;;;;;;;;;;;0.10;99.90;;;;;;5013098;28;20109;-76
2022/01/13 03:51:51;;;;;;;39.72;25.05;;;0.20;99.90;;;;;;5012872;28;19912;-77
2022/01/13 03:54:32;;;;;;;41.55;26.40;;;0.20;99.90;;;;;;5014692;28;20030;-77
2022/01/13 03:57:55;;;;;;;50.92;28.50;;;0.20;99.90;;;;;;5014443;28;20145;-76
2022/01/13 04:00:43;;;;;;;40.83;27.23;;;0.00;99.90;;;;;;5011845;28;20120;-78
2022/01/13 04:03:08;;;;;;;38.35;24.83;;;-0.10;99.90;;;;;;5015621;28;20048;-77
2022/01/13 04:06:00;;;;;;;39.17;25.42;;;-0.10;99.90;;;;;;5014522;28;20030;-77
2022/01/13 04:08:27;;;;;;;33.92;23.60;;;0.00;99.90;;;;;;5014432;28;20022;-77
2022/01/13 04:11:04;;;;;;;36.63;24.55;;;0.00;99.90;;;;;;5014356;28;20057;-77
2022/01/13 04:13:48;;;;;;;33.30;24.67;;;0.10;99.90;;;;;;5013522;28;20029;-77
2022/01/13 04:16:22;;;;;;;35.83;23.55;;;0.10;99.90;;;;;;5016955;28;20026;-77
2022/01/13 04:18:49;;;;;;;31.85;23.33;;;0.00;99.90;;;;;;5014613;28;20037;-77
2022/01/13 04:21:18;;;;;;;33.97;24.05;;;0.10;99.90;;;;;;5024274;28;20117;-77
2022/01/13 04:23:45;;;;;;;37.00;24.13;;;0.10;99.90;;;;;;5016805;28;20026;-77
2022/01/13 04:26:12;;;;;;;33.85;23.90;;;0.10;99.90;;;;;;5014317;28;20034;-77
2022/01/13 04:28:40;;;;;;;34.40;24.67;;;0.10;99.90;;;;;;5014474;28;20029;-77
2022/01/13 04:31:06;;;;;;;32.92;22.95;;;0.10;99.90;;;;;;5014513;28;20045;-77
2022/01/13 04:33:34;;;;;;;34.53;23.25;;;0.00;99.90;;;;;;5014598;28;20477;-77
2022/01/13 04:36:01;;;;;;;35.33;21.85;;;0.10;99.90;;;;;;5012691;28;20022;-77
2022/01/13 04:38:27;;;;;;;33.95;23.55;;;0.10;99.90;;;;;;5013229;28;20026;-76
2022/01/13 04:40:58;;;;;;;32.78;23.23;;;0.20;99.90;;;;;;5017214;28;20032;-77
2022/01/13 04:43:26;;;;;;;32.90;22.08;;;0.30;99.90;;;;;;5016591;28;20439;-77
2022/01/13 04:45:52;;;;;;;34.53;22.88;;;0.30;99.90;;;;;;5014666;28;20029;-78
2022/01/13 04:48:17;;;;;;;36.08;24.33;;;0.30;99.90;;;;;;5012488;28;20034;-77
2022/01/13 04:50:43;;;;;;;32.83;22.83;;;0.40;99.90;;;;;;5017352;28;20037;-76
2022/01/13 04:53:10;;;;;;;34.97;23.15;;;0.30;99.90;;;;;;5018412;28;20025;-76
2022/01/13 04:55:37;;;;;;;30.10;21.95;;;0.30;99.90;;;;;;5017964;28;20022;-76
2022/01/13 04:58:07;;;;;;;32.53;22.20;;;0.40;99.90;;;;;;5017910;28;20026;-76
2022/01/13 05:00:33;;;;;;;30.27;22.85;;;0.30;99.90;;;;;;5016193;28;20029;-78
2022/01/13 05:02:59;;;;;;;32.47;22.48;;;0.30;99.90;;;;;;5012460;28;20064;-77
2022/01/13 05:05:26;;;;;;;35.35;22.58;;;0.30;99.90;;;;;;5012578;28;20058;-78
2022/01/13 05:07:52;;;;;;;32.95;22.52;;;0.30;99.90;;;;;;5011798;28;20022;-78
2022/01/13 05:10:18;;;;;;;34.13;22.65;;;0.30;99.90;;;;;;5013235;28;20437;-78
2022/01/13 05:12:46;;;;;;;30.83;22.30;;;0.30;99.90;;;;;;5017271;28;20133;-78
2022/01/13 05:15:25;;;;;;;29.45;20.65;;;0.30;99.90;;;;;;5016132;28;20228;-77
2022/01/13 05:20:21;;;;;;;29.58;21.42;;;0.30;99.90;;;;;;5032416;28;20037;-76
2022/01/13 05:22:48;;;;;;;31.50;21.48;;;0.30;99.90;;;;;;5038659;28;20018;-77
2022/01/13 05:25:18;;;;;;;30.25;22.08;;;0.40;99.90;;;;;;5018315;28;20433;-76
2022/01/13 05:27:45;;;;;;;30.48;21.10;;;0.30;99.90;;;;;;5015292;28;20133;-77
2022/01/13 05:30:15;;;;;;;33.42;22.52;;;0.40;99.90;;;;;;5015095;28;20026;-76
2022/01/13 05:32:41;;;;;;;32.10;21.30;;;0.30;99.90;;;;;;5014494;28;20028;-77
2022/01/13 05:35:07;;;;;;;32.22;22.40;;;0.30;99.90;;;;;;5033603;28;20022;-77
2022/01/13 05:37:32;;;;;;;32.97;22.45;;;0.30;99.90;;;;;;5035181;28;20034;-76
2022/01/13 05:39:58;;;;;;;33.30;22.73;;;0.30;99.90;;;;;;5014833;28;20422;-77
2022/01/13 05:42:24;;;;;;;35.80;21.67;;;0.40;99.90;;;;;;5016486;28;20044;-77
2022/01/13 05:44:50;;;;;;;28.80;20.42;;;0.40;99.90;;;;;;5015083;28;20080;-77
2022/01/13 05:47:16;;;;;;;29.85;22.88;;;0.30;99.90;;;;;;5017619;28;20086;-78
2022/01/13 05:49:43;;;;;;;30.80;22.02;;;0.20;99.90;;;;;;5016915;28;20026;-78
2022/01/13 05:52:11;;;;;;;32.28;21.88;;;0.20;99.90;;;;;;5016679;28;20053;-78
2022/01/13 05:54:37;;;;;;;29.35;21.95;;;0.30;99.90;;;;;;5016412;28;20056;-77
2022/01/13 05:57:03;;;;;;;30.58;21.33;;;0.30;99.90;;;;;;5015933;28;20030;-77
2022/01/13 05:59:29;;;;;;;31.25;20.98;;;0.20;99.90;;;;;;5028477;28;20030;-76
2022/01/13 06:01:54;;;;;;;33.42;23.38;;;0.10;99.90;;;;;;5036628;28;20018;-77
2022/01/13 06:04:20;;;;;;;29.92;20.95;;;0.20;99.90;;;;;;5036911;28;20026;-75
2022/01/13 06:06:45;;;;;;;31.92;21.95;;;0.30;99.90;;;;;;5037141;28;20030;-76
2022/01/13 06:09:11;;;;;;;30.25;22.08;;;0.20;99.90;;;;;;5036949;28;20010;-77
2022/01/13 06:11:39;;;;;;;30.58;21.70;;;0.20;99.90;;;;;;5025429;28;20026;-78
2022/01/13 06:14:05;;;;;;;31.77;22.48;;;0.30;99.90;;;;;;5020942;28;20072;-78
2022/01/13 06:16:31;;;;;;;33.15;22.80;;;0.20;99.90;;;;;;5019864;28;20026;-78
2022/01/13 06:18:57;;;;;;;36.58;22.38;;;0.20;99.90;;;;;;5022336;28;20032;-78
2022/01/13 06:21:22;;;;;;;32.33;21.08;;;0.20;99.90;;;;;;5019462;28;20029;-76
2022/01/13 06:23:48;;;;;;;29.55;22.25;;;0.30;99.90;;;;;;5018345;28;20034;-77
2022/01/13 06:26:14;;;;;;;36.70;22.70;;;0.30;99.90;;;;;;5018333;28;20045;-77
2022/01/13 06:28:39;;;;;;;28.92;21.35;;;0.30;99.90;;;;;;5018390;28;20057;-78
2022/01/13 06:31:05;;;;;;;31.40;21.65;;;0.20;99.90;;;;;;5019947;28;20022;-78
2022/01/13 06:33:32;;;;;;;33.53;22.50;;;0.30;99.90;;;;;;5017089;28;20053;-78
2022/01/13 06:35:59;;;;;;;35.47;23.30;;;0.30;99.90;;;;;;5019168;28;20030;-78
2022/01/13 06:38:24;;;;;;;33.40;21.33;;;0.30;99.90;;;;;;5018420;28;20053;-77
2022/01/13 06:40:51;;;;;;;32.25;23.48;;;0.30;99.90;;;;;;5018692;28;20033;-78
2022/01/13 06:43:17;;;;;;;30.27;21.70;;;0.20;99.90;;;;;;5019183;28;20030;-78
2022/01/13 06:45:43;;;;;;;32.22;23.20;;;0.10;99.90;;;;;;5017774;28;20040;-78
2022/01/13 06:48:09;;;;;;;28.80;22.13;;;0.00;99.90;;;;;;5018985;28;20018;-78
2022/01/13 06:50:35;;;;;;;34.78;23.48;;;-0.10;99.90;;;;;;5023567;28;20122;-76
2022/01/13 06:53:02;;;;;;;33.33;21.92;;;0.10;99.90;;;;;;5025963;28;20064;-76
2022/01/13 06:55:27;;;;;;;32.45;22.55;;;0.10;99.90;;;;;;5029186;28;20433;-76
2022/01/13 06:57:53;;;;;;;29.88;22.83;;;0.20;99.90;;;;;;5019975;28;20041;-77
2022/01/13 07:00:22;;;;;;;34.63;21.65;;;0.00;99.90;;;;;;5022318;28;20022;-76
2022/01/13 07:02:48;;;;;;;36.92;22.92;;;0.00;99.90;;;;;;5020534;28;20041;-77
2022/01/13 07:05:13;;;;;;;32.53;22.23;;;0.00;99.90;;;;;;5019489;28;20026;-78
2022/01/13 07:07:40;;;;;;;33.85;22.42;;;0.00;99.90;;;;;;5019176;28;20030;-77
2022/01/13 07:10:09;;;;;;;34.05;22.20;;;0.20;99.90;;;;;;5018342;28;20032;-77
2022/01/13 07:12:35;;;;;;;30.85;21.90;;;0.40;99.90;;;;;;5017571;28;20033;-77
2022/01/13 07:15:01;;;;;;;35.60;23.33;;;0.50;99.90;;;;;;5017517;28;20501;-78
2022/01/13 07:17:27;;;;;;;30.65;21.60;;;0.40;99.90;;;;;;5017477;28;20022;-76
2022/01/13 07:19:53;;;;;;;29.88;21.45;;;0.50;99.90;;;;;;5018013;28;20620;-77
2022/01/13 07:22:19;;;;;;;31.83;22.35;;;0.50;99.90;;;;;;5016933;28;20057;-77
2022/01/13 07:24:44;;;;;;;37.53;22.40;;;0.50;99.90;;;;;;5015851;28;20509;-77
2022/01/13 07:27:10;;;;;;;26.58;20.45;;;0.40;99.90;;;;;;5017050;28;20026;-77
2022/01/13 07:29:36;;;;;;;31.30;20.98;;;0.50;99.90;;;;;;5017237;28;20049;-77
2022/01/13 07:32:02;;;;;;;35.55;23.38;;;0.40;99.90;;;;;;5017364;28;20076;-77
2022/01/13 07:34:28;;;;;;;31.95;22.70;;;0.30;99.90;;;;;;5014069;28;20034;-77
2022/01/13 07:36:53;;;;;;;33.42;22.55;;;0.40;99.90;;;;;;5016078;28;20030;-77
2022/01/13 07:39:19;;;;;;;42.13;24.77;;;0.50;99.90;;;;;;5017186;28;20508;-77
2022/01/13 07:41:45;;;;;;;32.97;23.02;;;0.50;99.90;;;;;;5017190;28;20357;-77
2022/01/13 07:44:10;;;;;;;33.05;22.15;;;0.50;99.90;;;;;;5026791;28;20010;-78
2022/01/13 07:46:36;;;;;;;33.35;22.38;;;0.50;99.90;;;;;;5029833;28;20544;-77
2022/01/13 07:49:02;;;;;;;30.77;20.23;;;0.40;99.90;;;;;;5018447;28;20381;-77
2022/01/13 07:51:29;;;;;;;36.03;22.50;;;0.50;99.90;;;;;;5017048;28;20036;-77
2022/01/13 07:53:55;;;;;;;34.72;21.95;;;0.60;99.90;;;;;;5016897;28;20076;-77
2022/01/13 07:56:21;;;;;;;33.38;21.67;;;0.60;99.90;;;;;;5019615;28;20026;-77
2022/01/13 07:58:47;;;;;;;32.50;22.85;;;0.60;99.90;;;;;;5017826;28;20048;-77
2022/01/13 08:01:13;;;;;;;32.67;23.27;;;0.70;99.90;;;;;;5017698;28;20481;-78
2022/01/13 08:03:38;;;;;;;29.48;22.33;;;0.80;99.90;;;;;;5016238;28;20037;-77
2022/01/13 08:06:04;;;;;;;33.85;23.67;;;0.70;99.90;;;;;;5019292;28;20497;-78
2022/01/13 08:08:32;;;;;;;36.17;22.25;;;0.60;99.90;;;;;;5037238;28;20014;-78
2022/01/13 08:10:58;;;;;;;34.47;21.88;;;0.70;99.90;;;;;;5030910;28;20216;-77
2022/01/13 08:13:25;;;;;;;38.05;22.88;;;0.60;99.90;;;;;;5015487;28;20025;-77
2022/01/13 08:15:54;;;;;;;32.20;22.48;;;0.70;99.90;;;;;;5015833;28;20289;-78
2022/01/13 08:21:04;;;;;;;35.95;22.05;;;0.70;99.90;;;;;;5017105;28;20449;-78
2022/01/13 08:23:29;;;;;;;33.83;22.15;;;0.90;99.90;;;;;;5014894;28;20037;-77
2022/01/13 08:25:55;;;;;;;29.42;20.88;;;1.00;99.90;;;;;;5013324;28;20030;-78
2022/01/13 08:28:21;;;;;;;31.45;21.30;;;0.90;99.90;;;;;;5014842;28;20061;-77
2022/01/13 08:30:47;;;;;;;36.00;23.98;;;0.90;99.90;;;;;;5015021;28;20309;-77
2022/01/13 08:33:13;;;;;;;35.95;22.30;;;0.90;99.90;;;;;;5013992;28;20501;-77
2022/01/13 08:35:43;;;;;;;30.23;22.35;;;0.90;99.90;;;;;;5013835;28;20041;-79
2022/01/13 08:38:16;;;;;;;29.67;19.67;;;0.90;99.90;;;;;;5013593;28;20449;-77
2022/01/13 08:40:43;;;;;;;31.25;21.50;;;0.90;99.90;;;;;;5013202;28;20049;-77
2022/01/13 08:43:08;;;;;;;29.23;20.27;;;1.00;99.90;;;;;;5014193;28;20136;-78
2022/01/13 08:45:34;;;;;;;35.25;20.40;;;0.90;99.90;;;;;;5014081;28;20026;-77
2022/01/13 08:48:00;;;;;;;28.58;19.88;;;1.20;99.90;;;;;;5012463;28;20109;-77
2022/01/13 08:50:25;;;;;;;30.67;20.60;;;1.30;99.90;;;;;;5013212;28;20036;-78
2022/01/13 08:52:51;;;;;;;31.08;21.50;;;1.20;99.90;;;;;;5013047;28;20477;-78
2022/01/13 08:55:16;;;;;;;27.83;17.85;;;1.30;99.90;;;;;;5012859;28;20050;-77
2022/01/13 08:57:42;;;;;;;30.95;19.13;;;1.50;99.90;;;;;;5014271;28;20037;-77
2022/01/13 09:00:09;;;;;;;26.73;19.92;;;1.90;99.90;;;;;;5012439;28;20029;-76
2022/01/13 09:02:35;;;;;;;22.33;18.00;;;2.10;99.90;;;;;;5013290;28;20375;-77
2022/01/13 09:05:04;;;;;;;23.92;17.48;;;2.20;99.90;;;;;;5014690;28;20080;-78
2022/01/13 09:07:29;;;;;;;23.55;18.27;;;2.20;99.90;;;;;;5013913;28;20022;-78
2022/01/13 09:09:56;;;;;;;23.92;15.85;;;2.30;99.90;;;;;;5015144;28;20065;-78
2022/01/13 09:12:22;;;;;;;24.17;16.25;;;2.30;99.90;;;;;;5013799;28;20482;-77
2022/01/13 09:14:49;;;;;;;22.70;17.63;;;2.50;99.90;;;;;;5015100;28;20115;-77
2022/01/13 09:17:21;;;;;;;23.20;16.90;;;2.20;99.90;;;;;;5014428;28;20113;-79
2022/01/13 09:19:47;;;;;;;30.60;17.27;;;2.00;99.90;;;;;;5017827;28;20105;-77
2022/01/13 09:22:12;;;;;;;21.58;17.02;;;2.00;99.90;;;;;;5015168;28;20057;-78
2022/01/13 09:24:38;;;;;;;25.25;15.98;;;1.90;99.90;;;;;;5013924;28;20025;-78
2022/01/13 09:27:04;;;;;;;26.63;14.93;;;1.90;99.90;;;;;;5013448;28;20022;-78
2022/01/13 09:29:30;;;;;;;23.77;13.23;;;1.90;99.90;;;;;;5014226;28;20570;-77
2022/01/13 09:31:55;;;;;;;17.55;12.93;;;1.90;99.90;;;;;;5030559;28;20117;-77
2022/01/13 09:34:21;;;;;;;18.85;13.30;;;1.90;99.90;;;;;;5021687;28;20017;-77
2022/01/13 09:36:50;;;;;;;17.88;13.98;;;1.90;99.90;;;;;;5018130;28;20421;-77
2022/01/13 09:39:16;;;;;;;23.73;15.40;;;1.60;99.90;;;;;;5017233;28;20453;-77
2022/01/13 09:41:44;;;;;;;21.77;15.75;;;1.80;99.90;;;;;;5015495;28;20025;-76
2022/01/13 09:44:10;;;;;;;25.48;17.23;;;1.70;99.90;;;;;;5015734;28;20366;-77
2022/01/13 09:46:37;;;;;;;23.10;15.85;;;1.80;99.90;;;;;;5015757;28;20054;-77
2022/01/13 09:49:05;;;;;;;19.27;15.13;;;1.90;99.90;;;;;;5014668;28;20528;-77
2022/01/13 09:51:33;;;;;;;21.70;15.18;;;1.90;99.90;;;;;;5013693;28;20026;-77
2022/01/13 09:53:59;;;;;;;23.35;16.02;;;1.90;99.90;;;;;;5015929;28;20030;-77
2022/01/13 09:56:24;;;;;;;24.08;15.57;;;1.90;99.90;;;;;;5018901;28;20076;-78
2022/01/13 09:58:50;;;;;;;23.67;15.85;;;1.80;99.90;;;;;;5028971;28;20037;-78
2022/01/13 10:01:16;;;;;;;29.38;17.08;;;1.80;99.90;;;;;;5030561;28;20041;-78
2022/01/13 10:03:42;;;;;;;26.38;18.10;;;2.00;99.90;;;;;;5029820;28;20099;-78
2022/01/13 10:06:10;;;;;;;26.92;17.33;;;2.10;99.90;;;;;;5029937;28;20030;-78
2022/01/13 10:08:49;;;;;;;28.02;18.02;;;2.00;99.90;;;;;;5022249;28;20072;-78
2022/01/13 10:11:45;;;;;;;25.10;16.80;;;2.00;99.90;;;;;;5017127;28;20121;-77
2022/01/13 10:16:54;;;;;;;22.60;16.77;;;2.00;99.90;;;;;;5017234;28;20033;-77
2022/01/13 10:19:34;;;;;;;24.77;17.13;;;1.90;99.90;;;;;;5017119;28;20022;-76
2022/01/13 10:22:00;;;;;;;21.15;16.10;;;1.90;99.90;;;;;;5018006;28;20027;-79
2022/01/13 10:24:28;;;;;;;24.70;17.05;;;1.90;99.90;;;;;;5016248;28;20100;-78
2022/01/13 10:27:07;;;;;;;22.77;16.45;;;1.90;99.90;;;;;;5023821;28;20010;-77
2022/01/13 10:29:41;;;;;;;21.40;17.05;;;1.90;99.90;;;;;;5018212;28;20017;-79
2022/01/13 10:32:08;;;;;;;31.25;18.08;;;2.00;99.90;;;;;;5017104;28;20116;-77
2022/01/13 10:34:36;;;;;;;26.58;17.77;;;2.10;99.90;;;;;;5018030;28;20084;-77
2022/01/13 10:37:07;;;;;;;25.63;17.60;;;2.20;99.90;;;;;;5025082;28;20036;-78
2022/01/13 10:39:56;;;;;;;27.38;17.80;;;2.20;99.90;;;;;;5020536;28;20042;-79
2022/01/13 10:45:09;;;;;;;29.25;18.48;;;2.10;99.90;;;;;;5021607;28;20484;-77
2022/01/13 10:47:35;;;;;;;24.67;17.75;;;2.10;99.90;;;;;;5020493;28;20137;-77
2022/01/13 10:50:06;;;;;;;30.00;18.67;;;2.20;99.90;;;;;;5019269;28;20090;-77
2022/01/13 10:52:31;;;;;;;27.67;18.67;;;2.20;99.90;;;;;;5016961;28;20026;-77
2022/01/13 10:55:06;;;;;;;26.02;17.27;;;2.30;99.90;;;;;;5020977;28;20045;-78
2022/01/13 10:57:32;;;;;;;23.52;16.25;;;2.50;99.90;;;;;;5017972;28;20385;-78
2022/01/13 10:59:58;;;;;;;29.00;18.15;;;2.60;99.90;;;;;;5015252;28;20037;-77
2022/01/13 11:02:24;;;;;;;30.60;16.42;;;2.60;99.90;;;;;;5014577;28;20033;-77
2022/01/13 11:04:51;;;;;;;21.70;16.50;;;2.70;99.90;;;;;;5016423;28;20034;-77
2022/01/13 11:07:21;;;;;;;22.38;16.73;;;2.70;99.90;;;;;;5014098;28;20394;-77
2022/01/13 11:09:52;;;;;;;23.25;16.40;;;2.80;99.90;;;;;;5018412;28;20072;-77
2022/01/13 11:12:39;;;;;;;22.13;16.65;;;2.80;99.90;;;;;;5021915;28;20493;-77
2022/01/13 11:15:13;;;;;;;27.48;16.55;;;2.80;99.90;;;;;;5023042;28;20101;-76
2022/01/13 11:17:39;;;;;;;21.52;15.43;;;2.70;99.90;;;;;;5022075;28;20026;-78
2022/01/13 11:20:10;;;;;;;17.33;14.27;;;2.60;99.90;;;;;;5018664;28;20030;-78
2022/01/13 11:22:38;;;;;;;19.45;13.63;;;2.90;99.90;;;;;;5014850;28;20030;-77
2022/01/13 11:25:06;;;;;;;14.45;12.27;;;3.10;99.90;;;;;;5014001;28;20781;-77
2022/01/13 11:27:33;;;;;;;19.95;14.88;;;3.30;99.90;;;;;;5014820;28;20092;-78
2022/01/13 11:29:59;;;;;;;17.80;13.38;;;3.30;99.90;;;;;;5015830;28;20032;-77
2022/01/13 11:32:25;;;;;;;19.38;16.08;;;3.30;99.90;;;;;;5028218;28;20002;-78
2022/01/13 11:34:53;;;;;;;22.20;16.58;;;3.40;99.90;;;;;;5037520;28;20014;-77
2022/01/13 11:37:19;;;;;;;23.02;16.95;;;3.40;99.90;;;;;;5037402;28;20038;-77
2022/01/13 11:39:45;;;;;;;20.00;14.57;;;3.50;99.90;;;;;;5025230;28;20129;-78
2022/01/13 11:42:14;;;;;;;18.58;14.00;;;3.50;99.90;;;;;;5025612;28;20088;-77
2022/01/13 11:44:43;;;;;;;25.77;16.33;;;3.60;99.90;;;;;;5028766;28;20034;-77
2022/01/13 11:47:27;;;;;;;23.63;13.27;;;3.60;99.90;;;;;;5027865;28;20006;-78
2022/01/13 11:50:03;;;;;;;20.65;14.63;;;3.50;99.90;;;;;;5029542;28;20025;-77
2022/01/13 11:52:50;;;;;;;16.58;13.23;;;3.60;99.90;;;;;;5025328;28;20708;-75
2022/01/13 11:55:32;;;;;;;22.77;16.38;;;3.70;99.90;;;;;;5028274;28;20025;-77
2022/01/13 11:58:21;;;;;;;16.15;12.05;;;3.60;99.90;;;;;;5026202;28;20287;-77
2022/01/13 12:00:50;;;;;;;20.13;14.55;;;3.70;99.90;;;;;;5025518;28;20033;-77
2022/01/13 12:03:26;;;;;;;20.60;13.55;;;3.80;99.90;;;;;;5015928;28;20026;-77
2022/01/13 12:05:52;;;;;;;17.27;14.30;;;3.80;99.90;;;;;;5024205;28;20133;-77
2022/01/13 12:08:47;;;;;;;22.27;13.93;;;3.90;99.90;;;;;;5024819;28;20085;-77
2022/01/13 12:11:31;;;;;;;19.52;13.82;;;4.00;99.90;;;;;;5022965;28;20032;-77
2022/01/13 12:13:57;;;;;;;17.60;14.10;;;3.90;99.90;;;;;;5020810;28;20371;-77
2022/01/13 12:17:00;;;;;;;18.88;15.13;;;4.00;99.90;;;;;;5013911;28;20037;-78
2022/01/13 12:19:37;;;;;;;17.35;13.20;;;4.10;99.90;;;;;;5011998;28;20108;-77
2022/01/13 12:22:47;;;;;;;19.98;14.18;;;4.10;99.90;;;;;;5018126;28;20490;-78
2022/01/13 12:25:18;;;;;;;21.67;14.43;;;4.10;99.90;;;;;;5021916;28;20021;-77
2022/01/13 12:27:47;;;;;;;20.23;15.80;;;4.00;99.90;;;;;;5015637;28;20032;-77
2022/01/13 12:30:15;;;;;;;26.95;17.13;;;4.10;99.90;;;;;;5013456;28;20051;-78
2022/01/13 12:32:59;;;;;;;24.23;16.30;;;4.30;99.90;;;;;;5013288;28;20022;-77
2022/01/13 12:35:30;;;;;;;27.55;18.42;;;4.40;99.90;;;;;;5013910;28;20029;-77
2022/01/13 12:38:05;;;;;;;22.75;17.08;;;4.30;99.90;;;;;;5012646;28;20026;-77
2022/01/13 12:40:42;;;;;;;28.25;17.27;;;4.40;99.90;;;;;;5011893;28;20161;-77
2022/01/13 12:46:22;;;;;;;34.08;19.48;;;4.40;99.90;;;;;;5014316;28;20433;-77
2022/01/13 12:48:53;;;;;;;22.42;16.48;;;4.40;99.90;;;;;;5014891;28;20050;-77
2022/01/13 12:51:26;;;;;;;21.30;14.90;;;4.20;99.90;;;;;;5016457;28;20085;-78
2022/01/13 12:53:54;;;;;;;17.42;14.30;;;4.30;99.90;;;;;;5016201;28;20185;-77
2022/01/13 12:56:25;;;;;;;21.52;15.95;;;4.60;99.90;;;;;;5017741;28;20025;-78
2022/01/13 12:58:57;;;;;;;21.55;15.98;;;4.70;99.90;;;;;;5019883;28;20029;-77
2022/01/13 13:01:28;;;;;;;20.38;16.65;;;4.70;99.90;;;;;;5020351;28;20064;-77
2022/01/13 13:04:04;;;;;;;24.58;17.10;;;4.70;99.90;;;;;;5020557;28;20037;-77
2022/01/13 13:06:34;;;;;;;27.58;16.85;;;4.80;99.90;;;;;;5018681;28;20029;-77